sensor_id;sensor_type;location;lat;lon;timestamp;pressure;altitude;pressure_sealevel;temperature;humidity
53960;BME280;39866;48.638;-2.020;2023-02-02T00:01:49;103041.88;;;13.19;54.66
53960;BME280;39866;48.638;-2.020;2023-02-02T00:04:20;103042.75;;;13.30;54.44
53960;BME280;39866;48.638;-2.020;2023-02-02T00:06:45;103050.75;;;13.37;54.09
53960;BME280;39866;48.638;-2.020;2023-02-02T00:09:13;103042.75;;;13.18;54.57
53960;BME280;39866;48.638;-2.020;2023-02-02T00:11:40;103038.31;;;13.09;54.50
53960;BME280;39866;48.638;-2.020;2023-02-02T00:14:06;103036.50;;;13.17;55.01
53960;BME280;39866;48.638;-2.020;2023-02-02T00:16:45;103026.69;;;13.30;54.24
53960;BME280;39866;48.638;-2.020;2023-02-02T00:19:12;103033.88;;;13.23;54.55
53960;BME280;39866;48.638;-2.020;2023-02-02T00:21:38;103040.13;;;13.04;54.64
53960;BME280;39866;48.638;-2.020;2023-02-02T00:24:08;103027.59;;;13.18;55.23
53960;BME280;39866;48.638;-2.020;2023-02-02T00:26:35;103024.00;;;13.22;55.41
53960;BME280;39866;48.638;-2.020;2023-02-02T00:29:01;103016.91;;;13.15;55.44
53960;BME280;39866;48.638;-2.020;2023-02-02T00:31:26;103016.91;;;13.09;55.16
53960;BME280;39866;48.638;-2.020;2023-02-02T00:33:52;103009.78;;;13.12;54.88
53960;BME280;39866;48.638;-2.020;2023-02-02T00:36:18;103005.31;;;13.21;54.78
53960;BME280;39866;48.638;-2.020;2023-02-02T00:38:45;102997.28;;;13.16;54.71
53960;BME280;39866;48.638;-2.020;2023-02-02T00:41:10;102996.44;;;13.11;54.27
53960;BME280;39866;48.638;-2.020;2023-02-02T00:43:36;103004.44;;;13.02;55.06
53960;BME280;39866;48.638;-2.020;2023-02-02T00:46:01;102992.03;;;12.95;55.40
53960;BME280;39866;48.638;-2.020;2023-02-02T00:48:26;103002.72;;;12.87;55.04
53960;BME280;39866;48.638;-2.020;2023-02-02T00:50:52;103017.84;;;12.97;55.34
53960;BME280;39866;48.638;-2.020;2023-02-02T00:53:17;103011.63;;;12.91;55.09
53960;BME280;39866;48.638;-2.020;2023-02-02T00:55:43;102999.97;;;13.14;54.65
53960;BME280;39866;48.638;-2.020;2023-02-02T00:58:08;102999.13;;;12.97;54.64
53960;BME280;39866;48.638;-2.020;2023-02-02T01:00:34;102984.88;;;12.89;54.51
53960;BME280;39866;48.638;-2.020;2023-02-02T01:03:00;102989.28;;;13.11;54.02
53960;BME280;39866;48.638;-2.020;2023-02-02T01:05:32;103000.91;;;13.07;53.94
53960;BME280;39866;48.638;-2.020;2023-02-02T01:07:58;102991.19;;;12.74;54.88
53960;BME280;39866;48.638;-2.020;2023-02-02T01:10:24;102986.69;;;12.95;54.95
53960;BME280;39866;48.638;-2.020;2023-02-02T01:12:49;102988.44;;;12.96;55.02
53960;BME280;39866;48.638;-2.020;2023-02-02T01:15:15;102993.78;;;12.96;54.72
53960;BME280;39866;48.638;-2.020;2023-02-02T01:17:40;102985.81;;;12.83;55.28
53960;BME280;39866;48.638;-2.020;2023-02-02T01:20:07;102975.06;;;12.96;54.95
53960;BME280;39866;48.638;-2.020;2023-02-02T01:22:32;102973.31;;;12.90;55.22
53960;BME280;39866;48.638;-2.020;2023-02-02T01:24:59;102973.28;;;13.02;54.75
53960;BME280;39866;48.638;-2.020;2023-02-02T01:27:24;102962.66;;;12.76;55.67
53960;BME280;39866;48.638;-2.020;2023-02-02T01:29:50;102972.47;;;12.74;55.39
53960;BME280;39866;48.638;-2.020;2023-02-02T01:32:15;102957.25;;;12.93;54.83
53960;BME280;39866;48.638;-2.020;2023-02-02T01:34:41;102957.34;;;12.62;55.47
53960;BME280;39866;48.638;-2.020;2023-02-02T01:37:08;102960.00;;;12.56;55.42
53960;BME280;39866;48.638;-2.020;2023-02-02T01:39:33;102965.34;;;12.52;55.51
53960;BME280;39866;48.638;-2.020;2023-02-02T01:41:59;102969.78;;;12.65;55.42
53960;BME280;39866;48.638;-2.020;2023-02-02T01:47:32;102950.97;;;13.00;55.07
53960;BME280;39866;48.638;-2.020;2023-02-02T01:49:59;102956.38;;;12.88;55.20
53960;BME280;39866;48.638;-2.020;2023-02-02T01:52:27;102958.16;;;12.81;55.27
53960;BME280;39866;48.638;-2.020;2023-02-02T01:54:56;102959.03;;;12.94;54.84
53960;BME280;39866;48.638;-2.020;2023-02-02T01:57:34;102962.66;;;12.82;54.98
53960;BME280;39866;48.638;-2.020;2023-02-02T02:00:06;102959.97;;;12.76;54.85
53960;BME280;39866;48.638;-2.020;2023-02-02T02:02:32;102973.38;;;12.67;55.41
53960;BME280;39866;48.638;-2.020;2023-02-02T02:05:00;102975.13;;;12.79;55.35
53960;BME280;39866;48.638;-2.020;2023-02-02T02:07:27;102984.91;;;12.77;55.30
53960;BME280;39866;48.638;-2.020;2023-02-02T02:09:52;102991.13;;;12.94;55.64
53960;BME280;39866;48.638;-2.020;2023-02-02T02:12:18;102980.38;;;13.02;55.54
53960;BME280;39866;48.638;-2.020;2023-02-02T02:14:46;102979.56;;;12.91;55.20
53960;BME280;39866;48.638;-2.020;2023-02-02T02:26:45;102986.72;;;12.61;55.50
53960;BME280;39866;48.638;-2.020;2023-02-02T02:35:12;102989.31;;;13.01;54.44
53960;BME280;39866;48.638;-2.020;2023-02-02T02:37:49;102979.47;;;13.24;54.02
53960;BME280;39866;48.638;-2.020;2023-02-02T02:40:38;102983.91;;;13.27;54.09
53960;BME280;39866;48.638;-2.020;2023-02-02T02:43:12;102986.56;;;13.30;53.78
53960;BME280;39866;48.638;-2.020;2023-02-02T02:45:40;102971.38;;;13.33;53.60
53960;BME280;39866;48.638;-2.020;2023-02-02T02:48:09;102979.44;;;13.21;54.00
53960;BME280;39866;48.638;-2.020;2023-02-02T02:50:35;102982.13;;;13.29;53.86
53960;BME280;39866;48.638;-2.020;2023-02-02T02:53:20;102981.22;;;13.18;54.03
53960;BME280;39866;48.638;-2.020;2023-02-02T02:56:18;102974.16;;;13.00;54.74
53960;BME280;39866;48.638;-2.020;2023-02-02T02:58:53;102965.22;;;13.11;54.58
53960;BME280;39866;48.638;-2.020;2023-02-02T03:01:33;102967.09;;;12.86;54.28
53960;BME280;39866;48.638;-2.020;2023-02-02T03:04:09;102976.84;;;12.97;54.30
53960;BME280;39866;48.638;-2.020;2023-02-02T03:06:54;102979.47;;;13.23;53.77
53960;BME280;39866;48.638;-2.020;2023-02-02T03:09:24;102967.91;;;13.08;54.39
53960;BME280;39866;48.638;-2.020;2023-02-02T03:11:54;102977.69;;;13.09;53.77
53960;BME280;39866;48.638;-2.020;2023-02-02T03:14:20;102975.84;;;13.22;54.07
53960;BME280;39866;48.638;-2.020;2023-02-02T03:16:45;102971.41;;;13.21;53.89
53960;BME280;39866;48.638;-2.020;2023-02-02T03:19:11;102967.88;;;13.19;53.83
53960;BME280;39866;48.638;-2.020;2023-02-02T03:21:36;102968.75;;;13.27;53.62
53960;BME280;39866;48.638;-2.020;2023-02-02T03:24:02;102971.44;;;13.13;54.08
53960;BME280;39866;48.638;-2.020;2023-02-02T03:26:27;102975.94;;;12.98;54.34
53960;BME280;39866;48.638;-2.020;2023-02-02T03:28:54;102968.72;;;13.18;54.23
53960;BME280;39866;48.638;-2.020;2023-02-02T03:31:21;102968.75;;;13.27;54.15
53960;BME280;39866;48.638;-2.020;2023-02-02T03:33:47;102969.63;;;13.17;54.42
53960;BME280;39866;48.638;-2.020;2023-02-02T03:36:12;102963.44;;;13.15;54.56
53960;BME280;39866;48.638;-2.020;2023-02-02T03:38:38;102961.66;;;13.05;54.91
53960;BME280;39866;48.638;-2.020;2023-02-02T03:41:04;102958.06;;;13.15;55.08
53960;BME280;39866;48.638;-2.020;2023-02-02T03:43:29;102971.50;;;12.97;55.19
53960;BME280;39866;48.638;-2.020;2023-02-02T03:46:02;102962.66;;;12.78;55.76
53960;BME280;39866;48.638;-2.020;2023-02-02T03:48:29;102961.66;;;13.02;55.71
53960;BME280;39866;48.638;-2.020;2023-02-02T03:50:54;102964.28;;;13.20;54.54
53960;BME280;39866;48.638;-2.020;2023-02-02T03:53:20;102968.81;;;13.04;54.05
53960;BME280;39866;48.638;-2.020;2023-02-02T03:55:46;102970.53;;;13.19;54.82
53960;BME280;39866;48.638;-2.020;2023-02-02T03:58:11;102981.97;;;13.58;53.87
53960;BME280;39866;48.638;-2.020;2023-02-02T04:00:36;102982.16;;;13.06;54.93
53960;BME280;39866;48.638;-2.020;2023-02-02T04:03:02;102988.41;;;13.08;55.12
53960;BME280;39866;48.638;-2.020;2023-02-02T04:05:27;102971.44;;;13.17;55.17
53960;BME280;39866;48.638;-2.020;2023-02-02T04:07:53;102972.38;;;13.00;56.30
53960;BME280;39866;48.638;-2.020;2023-02-02T04:10:18;102979.47;;;13.24;55.35
53960;BME280;39866;48.638;-2.020;2023-02-02T04:12:44;102980.34;;;13.31;55.16
53960;BME280;39866;48.638;-2.020;2023-02-02T04:15:09;102983.91;;;13.31;55.28
53960;BME280;39866;48.638;-2.020;2023-02-02T04:17:35;102984.78;;;13.21;55.75
53960;BME280;39866;48.638;-2.020;2023-02-02T04:20:04;102991.09;;;13.06;55.47
53960;BME280;39866;48.638;-2.020;2023-02-02T04:22:29;102983.91;;;13.13;55.64
53960;BME280;39866;48.638;-2.020;2023-02-02T04:24:55;102984.75;;;13.30;55.73
53960;BME280;39866;48.638;-2.020;2023-02-02T04:27:20;102992.78;;;13.30;55.39
53960;BME280;39866;48.638;-2.020;2023-02-02T04:29:46;102988.41;;;13.05;56.08
53960;BME280;39866;48.638;-2.020;2023-02-02T04:32:13;102984.81;;;13.15;56.62
53960;BME280;39866;48.638;-2.020;2023-02-02T04:34:39;102989.25;;;13.16;56.79
53960;BME280;39866;48.638;-2.020;2023-02-02T04:37:04;102987.56;;;12.84;58.01
53960;BME280;39866;48.638;-2.020;2023-02-02T04:39:30;102995.63;;;12.68;58.24
53960;BME280;39866;48.638;-2.020;2023-02-02T04:41:55;102984.00;;;12.90;57.99
53960;BME280;39866;48.638;-2.020;2023-02-02T04:44:20;102984.94;;;12.75;58.27
53960;BME280;39866;48.638;-2.020;2023-02-02T04:46:46;102987.56;;;12.89;58.61
53960;BME280;39866;48.638;-2.020;2023-02-02T04:49:11;102984.03;;;12.75;58.86
53960;BME280;39866;48.638;-2.020;2023-02-02T04:51:38;102990.22;;;12.95;58.77
53960;BME280;39866;48.638;-2.020;2023-02-02T04:54:04;102995.63;;;12.52;59.41
53960;BME280;39866;48.638;-2.020;2023-02-02T04:56:30;103003.66;;;12.40;60.33
53960;BME280;39866;48.638;-2.020;2023-02-02T04:58:55;103001.84;;;12.65;59.79
53960;BME280;39866;48.638;-2.020;2023-02-02T05:01:21;102997.41;;;12.75;59.09
53960;BME280;39866;48.638;-2.020;2023-02-02T05:03:48;103006.31;;;12.75;59.55
53960;BME280;39866;48.638;-2.020;2023-02-02T05:06:13;103006.28;;;12.89;59.52
53960;BME280;39866;48.638;-2.020;2023-02-02T05:08:39;103008.91;;;13.04;58.93
53960;BME280;39866;48.638;-2.020;2023-02-02T05:11:13;103004.50;;;12.77;60.00
53960;BME280;39866;48.638;-2.020;2023-02-02T05:13:39;103008.97;;;11.99;63.24
53960;BME280;39866;48.638;-2.020;2023-02-02T05:16:05;103017.91;;;12.36;63.60
53960;BME280;39866;48.638;-2.020;2023-02-02T05:18:31;103011.63;;;11.86;65.02
53960;BME280;39866;48.638;-2.020;2023-02-02T05:21:01;103014.31;;;11.91;65.07
53960;BME280;39866;48.638;-2.020;2023-02-02T05:23:27;103006.34;;;12.42;63.45
53960;BME280;39866;48.638;-2.020;2023-02-02T05:25:53;102987.56;;;12.81;63.19
53960;BME280;39866;48.638;-2.020;2023-02-02T05:28:19;103000.97;;;12.75;62.59
53960;BME280;39866;48.638;-2.020;2023-02-02T05:30:45;103006.28;;;12.91;62.32
53960;BME280;39866;48.638;-2.020;2023-02-02T05:33:10;103000.06;;;12.90;62.74
53960;BME280;39866;48.638;-2.020;2023-02-02T05:35:36;102997.38;;;12.87;62.46
53960;BME280;39866;48.638;-2.020;2023-02-02T05:38:01;102999.22;;;12.50;62.83
53960;BME280;39866;48.638;-2.020;2023-02-02T05:40:27;103000.09;;;12.70;62.40
53960;BME280;39866;48.638;-2.020;2023-02-02T05:42:52;103006.22;;;13.09;61.17
53960;BME280;39866;48.638;-2.020;2023-02-02T05:45:18;103010.66;;;13.16;60.99
53960;BME280;39866;48.638;-2.020;2023-02-02T05:47:43;103011.59;;;13.07;60.51
53960;BME280;39866;48.638;-2.020;2023-02-02T05:50:09;103006.19;;;13.17;59.79
53960;BME280;39866;48.638;-2.020;2023-02-02T05:52:34;102996.44;;;13.00;60.92
53960;BME280;39866;48.638;-2.020;2023-02-02T05:55:01;103010.69;;;13.08;60.36
53960;BME280;39866;48.638;-2.020;2023-02-02T05:57:26;103008.94;;;12.97;60.45
53960;BME280;39866;48.638;-2.020;2023-02-02T05:59:52;103005.34;;;13.01;60.40
53960;BME280;39866;48.638;-2.020;2023-02-02T06:02:18;103011.59;;;13.00;60.00
53960;BME280;39866;48.638;-2.020;2023-02-02T06:04:43;103010.66;;;13.21;59.61
53960;BME280;39866;48.638;-2.020;2023-02-02T06:07:08;103007.09;;;13.26;59.13
53960;BME280;39866;48.638;-2.020;2023-02-02T06:09:34;103008.00;;;13.24;59.36
53960;BME280;39866;48.638;-2.020;2023-02-02T06:11:59;103011.50;;;13.40;59.15
53960;BME280;39866;48.638;-2.020;2023-02-02T06:14:24;103008.84;;;13.18;58.97
53960;BME280;39866;48.638;-2.020;2023-02-02T06:16:50;103013.31;;;13.31;58.94
53960;BME280;39866;48.638;-2.020;2023-02-02T06:19:15;103008.00;;;13.27;58.85
53960;BME280;39866;48.638;-2.020;2023-02-02T06:21:40;103021.31;;;13.44;58.41
53960;BME280;39866;48.638;-2.020;2023-02-02T06:24:06;103027.53;;;13.46;57.88
53960;BME280;39866;48.638;-2.020;2023-02-02T06:26:31;103032.03;;;13.33;57.85
53960;BME280;39866;48.638;-2.020;2023-02-02T06:28:57;103030.19;;;13.49;57.88
53960;BME280;39866;48.638;-2.020;2023-02-02T06:31:22;103027.53;;;13.46;57.26
53960;BME280;39866;48.638;-2.020;2023-02-02T06:33:53;103026.72;;;13.27;57.50
53960;BME280;39866;48.638;-2.020;2023-02-02T06:36:19;103023.09;;;13.34;57.84
53960;BME280;39866;48.638;-2.020;2023-02-02T06:38:48;103023.13;;;13.32;57.45
53960;BME280;39866;48.638;-2.020;2023-02-02T06:41:13;103024.00;;;13.37;57.12
53960;BME280;39866;48.638;-2.020;2023-02-02T06:43:39;103024.75;;;13.72;56.57
53960;BME280;39866;48.638;-2.020;2023-02-02T06:46:04;103030.03;;;13.79;56.22
53960;BME280;39866;48.638;-2.020;2023-02-02T06:48:29;103034.75;;;13.27;56.42
53960;BME280;39866;48.638;-2.020;2023-02-02T06:50:58;103036.53;;;13.09;56.64
53960;BME280;39866;48.638;-2.020;2023-02-02T06:53:24;103039.13;;;13.45;56.51
53960;BME280;39866;48.638;-2.020;2023-02-02T06:55:54;103036.47;;;13.45;56.80
53960;BME280;39866;48.638;-2.020;2023-02-02T06:58:20;103031.13;;;13.43;56.33
53960;BME280;39866;48.638;-2.020;2023-02-02T07:00:45;103033.81;;;13.43;56.21
53960;BME280;39866;48.638;-2.020;2023-02-02T07:03:12;103034.66;;;13.50;56.33
53960;BME280;39866;48.638;-2.020;2023-02-02T07:05:38;103039.09;;;13.57;56.37
53960;BME280;39866;48.638;-2.020;2023-02-02T07:08:03;103040.88;;;13.50;56.05
53960;BME280;39866;48.638;-2.020;2023-02-02T07:10:29;103039.09;;;13.55;56.01
53960;BME280;39866;48.638;-2.020;2023-02-02T07:12:54;103051.59;;;13.49;55.70
53960;BME280;39866;48.638;-2.020;2023-02-02T07:15:19;103054.31;;;13.38;55.81
53960;BME280;39866;48.638;-2.020;2023-02-02T07:17:45;103058.78;;;13.34;55.56
53960;BME280;39866;48.638;-2.020;2023-02-02T07:20:10;103059.63;;;13.49;55.72
53960;BME280;39866;48.638;-2.020;2023-02-02T07:22:39;103054.25;;;13.50;55.75
53960;BME280;39866;48.638;-2.020;2023-02-02T07:25:06;103052.50;;;13.52;56.02
53960;BME280;39866;48.638;-2.020;2023-02-02T07:27:31;103046.34;;;13.24;56.47
53960;BME280;39866;48.638;-2.020;2023-02-02T07:29:57;103065.03;;;13.21;56.22
53960;BME280;39866;48.638;-2.020;2023-02-02T07:32:23;103065.94;;;13.12;56.87
53960;BME280;39866;48.638;-2.020;2023-02-02T07:34:48;103068.63;;;13.20;56.65
53960;BME280;39866;48.638;-2.020;2023-02-02T07:37:13;103062.41;;;13.23;56.73
53960;BME280;39866;48.638;-2.020;2023-02-02T07:39:39;103072.19;;;13.25;56.73
53960;BME280;39866;48.638;-2.020;2023-02-02T07:42:04;103066.81;;;13.21;57.14
53960;BME280;39866;48.638;-2.020;2023-02-02T07:44:30;103068.63;;;13.25;56.44
53960;BME280;39866;48.638;-2.020;2023-02-02T07:46:55;103073.09;;;13.24;56.90
53960;BME280;39866;48.638;-2.020;2023-02-02T07:49:20;103073.06;;;13.35;56.64
53960;BME280;39866;48.638;-2.020;2023-02-02T07:51:46;103066.81;;;13.21;56.93
53960;BME280;39866;48.638;-2.020;2023-02-02T07:54:13;103072.19;;;13.21;57.04
53960;BME280;39866;48.638;-2.020;2023-02-02T07:56:38;103075.78;;;12.97;57.58
53960;BME280;39866;48.638;-2.020;2023-02-02T07:59:04;103075.81;;;12.98;57.09
53960;BME280;39866;48.638;-2.020;2023-02-02T08:01:29;103078.44;;;13.09;56.93
53960;BME280;39866;48.638;-2.020;2023-02-02T08:03:57;103092.72;;;13.25;56.52
53960;BME280;39866;48.638;-2.020;2023-02-02T08:06:25;103088.25;;;13.13;56.86
53960;BME280;39866;48.638;-2.020;2023-02-02T08:08:52;103090.00;;;13.14;56.72
53960;BME280;39866;48.638;-2.020;2023-02-02T08:11:20;103090.03;;;13.02;56.55
53960;BME280;39866;48.638;-2.020;2023-02-02T08:13:54;103106.97;;;13.01;57.03
53960;BME280;39866;48.638;-2.020;2023-02-02T08:16:23;103101.66;;;12.84;57.19
53960;BME280;39866;48.638;-2.020;2023-02-02T08:18:49;103095.38;;;13.05;56.68
53960;BME280;39866;48.638;-2.020;2023-02-02T08:21:16;103096.28;;;13.04;56.79
53960;BME280;39866;48.638;-2.020;2023-02-02T08:23:41;103098.94;;;13.28;56.37
53960;BME280;39866;48.638;-2.020;2023-02-02T08:26:12;103102.50;;;13.06;56.88
53960;BME280;39866;48.638;-2.020;2023-02-02T08:28:40;103103.41;;;13.00;57.33
53960;BME280;39866;48.638;-2.020;2023-02-02T08:31:09;103106.97;;;13.13;57.37
53960;BME280;39866;48.638;-2.020;2023-02-02T08:33:35;103111.44;;;13.23;57.81
53960;BME280;39866;48.638;-2.020;2023-02-02T08:36:01;103118.59;;;13.03;57.68
53960;BME280;39866;48.638;-2.020;2023-02-02T08:38:27;103123.03;;;13.07;57.83
53960;BME280;39866;48.638;-2.020;2023-02-02T08:40:52;103117.66;;;13.16;57.94
53960;BME280;39866;48.638;-2.020;2023-02-02T08:43:18;103123.03;;;12.99;58.84
53960;BME280;39866;48.638;-2.020;2023-02-02T08:45:43;103118.59;;;13.03;58.93
53960;BME280;39866;48.638;-2.020;2023-02-02T08:48:08;103119.47;;;13.19;58.78
53960;BME280;39866;48.638;-2.020;2023-02-02T08:50:34;103123.03;;;13.27;58.28
53960;BME280;39866;48.638;-2.020;2023-02-02T08:53:00;103129.28;;;13.03;59.24
53960;BME280;39866;48.638;-2.020;2023-02-02T08:55:25;103134.59;;;13.09;58.66
53960;BME280;39866;48.638;-2.020;2023-02-02T08:57:51;103150.66;;;13.15;58.90
53960;BME280;39866;48.638;-2.020;2023-02-02T09:00:17;103148.00;;;12.97;58.83
53960;BME280;39866;48.638;-2.020;2023-02-02T09:02:42;103144.41;;;13.13;58.89
53960;BME280;39866;48.638;-2.020;2023-02-02T09:05:08;103132.81;;;13.34;58.53
53960;BME280;39866;48.638;-2.020;2023-02-02T09:07:33;103148.03;;;13.23;58.91
53960;BME280;39866;48.638;-2.020;2023-02-02T09:09:58;103149.78;;;13.24;58.41
53960;BME280;39866;48.638;-2.020;2023-02-02T09:12:24;103155.09;;;13.34;58.33
53960;BME280;39866;48.638;-2.020;2023-02-02T09:14:50;103157.78;;;13.48;57.40
53960;BME280;39866;48.638;-2.020;2023-02-02T09:17:16;103180.97;;;13.45;57.38
53960;BME280;39866;48.638;-2.020;2023-02-02T09:19:41;103179.22;;;13.25;57.85
53960;BME280;39866;48.638;-2.020;2023-02-02T09:22:06;103183.63;;;13.14;58.25
53960;BME280;39866;48.638;-2.020;2023-02-02T09:24:31;103186.34;;;13.26;57.77
53960;BME280;39866;48.638;-2.020;2023-02-02T09:26:57;103187.22;;;13.04;58.63
53960;BME280;39866;48.638;-2.020;2023-02-02T09:29:22;103198.84;;;13.24;58.68
53960;BME280;39866;48.638;-2.020;2023-02-02T09:31:47;103205.94;;;13.13;59.01
53960;BME280;39866;48.638;-2.020;2023-02-02T09:34:14;103199.72;;;13.35;58.34
53960;BME280;39866;48.638;-2.020;2023-02-02T09:36:40;103202.41;;;13.32;58.20
53960;BME280;39866;48.638;-2.020;2023-02-02T09:39:06;103201.50;;;13.40;58.38
53960;BME280;39866;48.638;-2.020;2023-02-02T09:41:58;103202.38;;;13.38;58.91
53960;BME280;39866;48.638;-2.020;2023-02-02T09:50:16;103204.19;;;13.32;59.74
53960;BME280;39866;48.638;-2.020;2023-02-02T09:52:51;103208.63;;;13.44;59.88
53960;BME280;39866;48.638;-2.020;2023-02-02T09:55:27;103205.03;;;13.57;59.41
53960;BME280;39866;48.638;-2.020;2023-02-02T09:58:20;103204.16;;;13.53;59.46
53960;BME280;39866;48.638;-2.020;2023-02-02T10:09:41;103215.78;;;13.28;59.86
53960;BME280;39866;48.638;-2.020;2023-02-02T10:14:56;103217.50;;;13.72;58.31
53960;BME280;39866;48.638;-2.020;2023-02-02T10:20:32;103215.66;;;13.86;58.02
53960;BME280;39866;48.638;-2.020;2023-02-02T10:25:38;103222.75;;;13.99;57.71
53960;BME280;39866;48.638;-2.020;2023-02-02T10:28:18;103227.22;;;13.96;57.79
53960;BME280;39866;48.638;-2.020;2023-02-02T10:30:46;103231.69;;;13.98;57.67
53960;BME280;39866;48.638;-2.020;2023-02-02T10:33:36;103235.34;;;13.80;57.94
53960;BME280;39866;48.638;-2.020;2023-02-02T10:39:03;103240.69;;;13.79;57.88
53960;BME280;39866;48.638;-2.020;2023-02-02T10:42:18;103240.69;;;13.79;58.25
53960;BME280;39866;48.638;-2.020;2023-02-02T10:44:54;103243.41;;;13.41;58.89
53960;BME280;39866;48.638;-2.020;2023-02-02T10:47:28;103239.88;;;13.35;58.59
53960;BME280;39866;48.638;-2.020;2023-02-02T10:50:17;103245.22;;;13.55;58.06
53960;BME280;39866;48.638;-2.020;2023-02-02T10:52:55;103240.72;;;13.07;58.85
53960;BME280;39866;48.638;-2.020;2023-02-02T10:55:37;103238.06;;;13.25;59.00
53960;BME280;39866;48.638;-2.020;2023-02-02T11:03:09;103243.41;;;13.34;58.26
53960;BME280;39866;48.638;-2.020;2023-02-02T11:05:36;103246.97;;;13.53;58.70
53960;BME280;39866;48.638;-2.020;2023-02-02T11:08:24;103255.03;;;13.52;59.08
53960;BME280;39866;48.638;-2.020;2023-02-02T11:10:54;103250.56;;;13.52;59.19
53960;BME280;39866;48.638;-2.020;2023-02-02T11:13:28;103251.44;;;13.65;58.72
53960;BME280;39866;48.638;-2.020;2023-02-02T11:18:38;103239.75;;;13.94;58.75
53960;BME280;39866;48.638;-2.020;2023-02-02T11:21:18;103238.75;;;14.24;58.08
53960;BME280;39866;48.638;-2.020;2023-02-02T11:26:23;103226.28;;;14.15;57.65
53960;BME280;39866;48.638;-2.020;2023-02-02T11:28:51;103223.66;;;14.03;57.98
53960;BME280;39866;48.638;-2.020;2023-02-02T11:34:25;103218.22;;;14.18;56.94
53960;BME280;39866;48.638;-2.020;2023-02-02T11:37:14;103227.06;;;14.35;56.49
53960;BME280;39866;48.638;-2.020;2023-02-02T11:39:44;103210.09;;;14.36;56.24
53960;BME280;39866;48.638;-2.020;2023-02-02T11:42:16;103216.34;;;14.42;55.40
53960;BME280;39866;48.638;-2.020;2023-02-02T11:44:58;103213.69;;;14.32;54.97
53960;BME280;39866;48.638;-2.020;2023-02-02T11:47:26;103218.13;;;14.40;55.25
53960;BME280;39866;48.638;-2.020;2023-02-02T11:49:53;103219.88;;;14.44;54.67
53960;BME280;39866;48.638;-2.020;2023-02-02T11:52:24;103213.56;;;14.66;54.86
53960;BME280;39866;48.638;-2.020;2023-02-02T11:54:52;103216.31;;;14.54;54.34
53960;BME280;39866;48.638;-2.020;2023-02-02T11:57:20;103207.31;;;14.59;54.58
53960;BME280;39866;48.638;-2.020;2023-02-02T11:59:49;103199.22;;;14.70;53.77
53960;BME280;39866;48.638;-2.020;2023-02-02T12:04:44;103200.22;;;14.48;53.54
53960;BME280;39866;48.638;-2.020;2023-02-02T12:07:31;103193.88;;;14.64;53.72
53960;BME280;39866;48.638;-2.020;2023-02-02T12:09:59;103187.69;;;14.54;54.08
53960;BME280;39866;48.638;-2.020;2023-02-02T12:15:35;103180.66;;;14.30;53.83
53960;BME280;39866;48.638;-2.020;2023-02-02T12:21:04;103180.66;;;14.33;53.64
53960;BME280;39866;48.638;-2.020;2023-02-02T12:23:45;103173.56;;;14.16;54.06
53960;BME280;39866;48.638;-2.020;2023-02-02T12:45:13;103163.78;;;14.13;54.26
53960;BME280;39866;48.638;-2.020;2023-02-02T13:05:05;103161.06;;;14.19;53.94
53960;BME280;39866;48.638;-2.020;2023-02-02T13:07:45;103154.81;;;14.19;53.89
53960;BME280;39866;48.638;-2.020;2023-02-02T13:12:56;103150.28;;;14.28;54.00
53960;BME280;39866;48.638;-2.020;2023-02-02T13:15:40;103144.88;;;14.36;54.21
53960;BME280;39866;48.638;-2.020;2023-02-02T13:18:13;103140.34;;;14.49;54.39
53960;BME280;39866;48.638;-2.020;2023-02-02T13:20:57;103139.53;;;14.34;54.58
53960;BME280;39866;48.638;-2.020;2023-02-02T13:23:30;103140.31;;;14.58;54.26
53960;BME280;39866;48.638;-2.020;2023-02-02T13:26:09;103142.09;;;14.56;54.20
53960;BME280;39866;48.638;-2.020;2023-02-02T13:28:52;103129.81;;;14.21;55.20
53960;BME280;39866;48.638;-2.020;2023-02-02T13:34:26;103138.75;;;14.16;55.50
53960;BME280;39866;48.638;-2.020;2023-02-02T13:37:12;103134.91;;;14.61;54.88
53960;BME280;39866;48.638;-2.020;2023-02-02T13:48:19;103144.75;;;14.62;54.29
53960;BME280;39866;48.638;-2.020;2023-02-02T14:01:45;103143.59;;;14.95;53.14
53960;BME280;39866;48.638;-2.020;2023-02-02T14:04:28;103126.94;;;14.55;53.97
53960;BME280;39866;48.638;-2.020;2023-02-02T14:06:59;103143.66;;;14.84;53.36
53960;BME280;39866;48.638;-2.020;2023-02-02T14:09:27;103156.03;;;15.01;53.42
53960;BME280;39866;48.638;-2.020;2023-02-02T14:11:58;103144.69;;;14.71;53.85
53960;BME280;39866;48.638;-2.020;2023-02-02T14:14:24;103148.56;;;14.15;55.62
53960;BME280;39866;48.638;-2.020;2023-02-02T14:17:57;103152.16;;;14.16;55.85
53960;BME280;39866;48.638;-2.020;2023-02-02T14:19:57;103153.91;;;14.21;55.59
53960;BME280;39866;48.638;-2.020;2023-02-02T14:22:46;103153.75;;;14.53;53.91
53960;BME280;39866;48.638;-2.020;2023-02-02T14:28:01;103145.72;;;14.50;53.21
53960;BME280;39866;48.638;-2.020;2023-02-02T14:30:33;103142.25;;;14.30;53.61
53960;BME280;39866;48.638;-2.020;2023-02-02T14:33:38;103146.47;;;14.74;52.41
53960;BME280;39866;48.638;-2.020;2023-02-02T14:36:09;103148.22;;;14.73;50.99
53960;BME280;39866;48.638;-2.020;2023-02-02T14:39:23;103139.44;;;14.48;50.71
53960;BME280;39866;48.638;-2.020;2023-02-02T14:42:07;103150.13;;;14.59;50.68
53960;BME280;39866;48.638;-2.020;2023-02-02T14:50:17;103148.00;;;15.01;49.54
53960;BME280;39866;48.638;-2.020;2023-02-02T14:52:56;103140.06;;;14.85;49.45
53960;BME280;39866;48.638;-2.020;2023-02-02T14:55:24;103152.44;;;15.06;49.59
53960;BME280;39866;48.638;-2.020;2023-02-02T14:57:55;103150.94;;;14.70;50.35
53960;BME280;39866;48.638;-2.020;2023-02-02T15:00:25;103153.25;;;15.15;50.68
53960;BME280;39866;48.638;-2.020;2023-02-02T15:02:52;103151.69;;;14.91;51.22
53960;BME280;39866;48.638;-2.020;2023-02-02T15:08:19;103163.22;;;14.97;51.78
53960;BME280;39866;48.638;-2.020;2023-02-02T15:13:16;103167.69;;;15.00;51.45